Airfield :
LOGIN :

Register | Disclaimer

   EN    FR    IT 

 










Legend :    VFR   Marginal VFR   IFR   Intensive IFR   Very Intensive IFR
Visi :
Ceiling :
>= 8 km
>= 3000ft
5 to 8 km
1000 to 3000 ft
1500m to 5 km
500 to 1000 ft
800 to 1500m
200 to 500 ft
< 800m
< 200 ft
Symbols :   Thunderstorms  Fog  Heavy snow  Heavy precipitations  Wind > 20 kt
SIGMETs :     Misc.  Thunderstorms  Icing  Turbulence  Mountain Waves  Volcanic Ashes







- Airport Elevation : 587 ft
- IATA code : XCR
- Download approach charts


LFOK - Chalons Vatry

CURRENT METAR :
  • 211500Z AUTO VRB02KT CAVOK 27/13 Q1018 NOSIG

EXPIRED METARs :
  • 211430Z AUTO VRB02KT CAVOK 26/12 Q1018 NOSIG
  • 211400Z AUTO 26004KT 210V330 CAVOK 26/11 Q1018 NOSIG
  • 211330Z AUTO 29003KT 260V340 CAVOK 26/12 Q1019 NOSIG
  • 211300Z AUTO VRB03KT CAVOK 26/13 Q1019 NOSIG
  • 211230Z AUTO 00000KT CAVOK 26/14 Q1019 NOSIG

TAF TAF LFOK
Valid from the 21 at 12:00 until the 22 at 12:00 UTC


211100Z 2112/2212 VRB03KT CAVOK
No reported NOTAMs for that airfield.



MET'MAP, your aeronautical weather chart ! - Copyright ORBIFLY December 2007 - Disclaimer

ORBIFLY MET'MAP TEAM :

Programming & Development : Alexandra Zaïnal
Concept & Development : Baudouin d'Aumeries
Co-Development & Prog : Marc-Olivier Méhu
Technical & hardware support : Manuel Goepfert

Contact : metmap@orbifly.com




SOURCES & CREDITS :

   NOAA